createdAt,value
2022-09-02T00:12:28.229Z,3.70
2022-09-02T00:27:29.006Z,4.20
2022-09-02T00:42:30.299Z,3.90
2022-09-02T00:57:30.871Z,4.20
2022-09-02T01:12:32.142Z,4.10
2022-09-02T01:27:34.728Z,3.80
2022-09-02T01:42:35.945Z,3.40
2022-09-02T01:57:37.034Z,3.80
2022-09-02T02:12:39.895Z,3.70
2022-09-02T02:27:40.800Z,5.30
2022-09-02T02:42:46.368Z,5.20
2022-09-02T02:57:46.826Z,6.30
2022-09-02T03:12:47.623Z,4.80
2022-09-02T03:27:48.732Z,4.60
2022-09-02T03:42:49.919Z,5.00
2022-09-02T03:57:51.374Z,4.70
2022-09-02T04:12:52.230Z,6.30
2022-09-02T04:27:54.713Z,5.10
2022-09-02T04:42:55.730Z,6.50
2022-09-02T04:57:56.180Z,4.80
2022-09-02T05:12:57.387Z,4.50
2022-09-02T05:27:58.462Z,4.20
2022-09-02T05:42:59.594Z,3.00
2022-09-02T05:58:00.226Z,2.80
2022-09-02T06:13:00.927Z,4.40
2022-09-02T06:28:06.853Z,2.80
2022-09-02T06:43:11.220Z,3.80
2022-09-02T06:58:12.642Z,2.50
2022-09-02T07:13:14.478Z,2.30
2022-09-02T07:28:15.954Z,1.90
2022-09-02T07:43:16.468Z,2.30
2022-09-02T07:58:18.009Z,2.40
2022-09-02T08:13:20.384Z,2.60
2022-09-02T08:28:21.629Z,2.10
2022-09-02T08:43:23.136Z,1.10
2022-09-02T08:58:24.393Z,1.30
2022-09-02T09:13:25.075Z,1.70
2022-09-02T09:28:26.853Z,0.70
2022-09-02T09:43:28.679Z,1.10
2022-09-02T09:58:30.176Z,3.20
2022-09-02T10:13:31.509Z,1.10
2022-09-02T10:28:33.389Z,0.90
2022-09-02T10:43:34.736Z,0.80
2022-09-02T10:58:36.086Z,1.50
2022-09-02T11:13:37.466Z,2.30
2022-09-02T11:28:37.775Z,0.90
2022-09-02T11:43:38.721Z,1.20
2022-09-02T11:58:40.858Z,2.40
2022-09-02T12:13:43.484Z,1.80
2022-09-02T12:28:45.090Z,1.70
2022-09-02T12:43:45.695Z,3.60
2022-09-02T12:58:48.146Z,1.00
2022-09-02T13:13:50.980Z,2.00
2022-09-02T13:28:51.433Z,1.00
2022-09-02T13:43:52.760Z,1.00
2022-09-02T13:58:55.246Z,1.10
2022-09-02T14:13:57.615Z,3.00
2022-09-02T14:28:58.984Z,1.20
2022-09-02T14:43:59.889Z,1.60
2022-09-02T14:59:01.911Z,1.40
2022-09-02T15:14:03.778Z,1.00
2022-09-02T15:29:05.627Z,3.10
2022-09-02T15:44:07.501Z,5.80
2022-09-02T15:59:10.380Z,3.10
2022-09-02T16:14:14.063Z,1.00
2022-09-02T16:29:16.586Z,2.20
2022-09-02T16:44:18.470Z,1.50
2022-09-02T16:59:20.310Z,1.60
2022-09-02T17:14:21.449Z,4.10
2022-09-02T17:29:53.832Z,0.70
2022-09-02T17:44:31.381Z,1.90
2022-09-02T17:59:33.246Z,1.50
2022-09-02T18:14:36.367Z,1.40
2022-09-02T18:29:39.108Z,1.60
2022-09-02T18:44:40.988Z,3.50
2022-09-02T18:59:42.827Z,2.90
2022-09-02T19:14:43.141Z,3.00
2022-09-02T19:29:44.760Z,3.00
2022-09-02T19:44:44.930Z,3.00
2022-09-02T19:59:45.764Z,1.90
2022-09-02T20:14:47.737Z,4.10
2022-09-02T20:29:49.959Z,4.80
2022-09-02T20:44:52.160Z,4.70
2022-09-02T20:59:54.244Z,4.10
2022-09-02T21:14:56.117Z,5.50
2022-09-02T21:30:01.625Z,4.50
2022-09-02T21:45:02.540Z,3.40
2022-09-02T22:00:03.500Z,3.30
2022-09-02T22:15:05.805Z,4.70
2022-09-02T22:30:07.553Z,2.80
2022-09-02T22:45:08.642Z,10.30
2022-09-02T23:00:09.585Z,7.50
2022-09-02T23:15:10.437Z,2.60
2022-09-02T23:30:14.602Z,3.50
2022-09-02T23:45:16.072Z,3.10
